首页
METAR-TAF:

METAR-TAF

机场 :

伯靈頓, 佛蒙特州, 美国

纬度: 44-28-05N, 经度: 073-09-01W, 海拔: 101米

当前天气观测

该预报发布于27分钟前的02:54 UTC
风速3节,风向西北
温度 16°C
湿度 72%
气压 1012 hPa
能見度: 16.1公里
散云层高于20000英尺

METAR: KBTV 170254Z 31003KT 10SM SCT200 16/11 A2989 RMK AO2 SLP121 T01560106 53012

时间: 23:21 (03:21 UTC)

预报

该预报发布于3小时和45分钟前的23:36 UTC
预报有效从17日的 00点(UTC)到 17日的 24点(UTC)
风速4节,风向
能見度: 10公里
散云层高于25000英尺

TAF: KBTV 162336Z 1700/1724 35004KT P6SM SCT250

超过4000个机场的气象观测和天气预报(METAR&TAF报告)。

可查询的气象台以黄色和红色小点在地图上表示。

将鼠标移到小点上方,可查看气象台名称。

然后点击查看天气观测和预报。

如需切换地图:点击带黑十字的绿色按钮放大地图;点击带横线的绿色按钮缩小地图;或者点击绿色箭头查看邻近地区的地图。


METAR-TAF: